Terminal Aerodrome Forecast
Issued by NWS Green Bay, WI

Home | Current Version | Previous Version | Text Only | Print | Product List | Glossary Off
Versions: 1 2 3 4 5 6 7 8 9 10 11 12 13 14 15 16 17 18 19 20 21 22 23 24 25 26 27 28 29 30 31 32 33 34 35 36

141
FTUS43 KGRB 251131
TAFGRB
TAF
KGRB 251131Z 2512/2612 14008KT P6SM SCT250 WS009/17035KT
     FM251300 15008KT P6SM SCT250
     FM251500 15009G14KT P6SM BKN200
     FM252300 13007KT P6SM OVC090
     FM260200 11006KT P6SM OVC080 WS016/16035KT
     FM260400 11007KT P6SM -SHRA OVC060 WS015/16040KT=

USA.gov is the U.S. government's official web portal to all federal, state and local government web resources and services.